createdAt,value
2018-08-27T00:02:22.591Z,99.90
2018-08-27T00:04:51.485Z,99.90
2018-08-27T00:07:20.045Z,99.90
2018-08-27T00:09:48.531Z,99.90
2018-08-27T00:12:17.012Z,99.90
2018-08-27T00:14:45.573Z,99.90
2018-08-27T00:17:14.041Z,99.90
2018-08-27T00:19:42.489Z,99.90
2018-08-27T00:22:10.977Z,99.90
2018-08-27T00:24:39.531Z,99.90
2018-08-27T00:27:08.380Z,99.90
2018-08-27T00:29:36.790Z,99.90
2018-08-27T00:32:05.252Z,99.90
2018-08-27T00:34:33.690Z,99.90
2018-08-27T00:37:02.219Z,99.90
2018-08-27T00:39:30.685Z,99.90
2018-08-27T00:41:59.741Z,99.90
2018-08-27T00:44:28.186Z,99.90
2018-08-27T00:46:57.420Z,99.90
2018-08-27T00:49:25.853Z,99.90
2018-08-27T00:51:54.306Z,99.90
2018-08-27T00:54:22.772Z,99.90
2018-08-27T00:56:51.739Z,99.90
2018-08-27T00:59:20.205Z,99.90
2018-08-27T01:01:48.821Z,99.90
2018-08-27T01:04:17.299Z,99.90
2018-08-27T01:06:46.005Z,99.90
2018-08-27T01:09:14.579Z,99.90
2018-08-27T01:11:43.037Z,99.90
2018-08-27T01:14:11.595Z,99.90
2018-08-27T01:16:40.061Z,99.90
2018-08-27T01:19:08.529Z,99.90
2018-08-27T01:21:37.046Z,99.90
2018-08-27T01:24:05.727Z,99.90
2018-08-27T01:26:34.231Z,99.90
2018-08-27T01:29:02.644Z,99.90
2018-08-27T01:31:31.109Z,99.90
2018-08-27T01:33:59.532Z,99.90
2018-08-27T01:36:28.020Z,99.90
2018-08-27T01:38:56.450Z,99.90
2018-08-27T01:41:24.890Z,99.90
2018-08-27T01:43:53.359Z,99.90
2018-08-27T01:46:21.806Z,99.90
2018-08-27T01:48:50.256Z,99.90
2018-08-27T01:51:18.695Z,99.90
2018-08-27T01:53:48.600Z,99.90
2018-08-27T01:56:17.156Z,99.90
2018-08-27T01:58:49.776Z,99.90
2018-08-27T02:01:19.376Z,99.90
2018-08-27T02:03:47.920Z,99.90
2018-08-27T02:06:16.412Z,99.90
2018-08-27T02:08:44.886Z,99.90
2018-08-27T02:11:13.307Z,99.90
2018-08-27T02:13:42.080Z,99.90
2018-08-27T02:16:10.577Z,99.90
2018-08-27T02:18:39.061Z,99.90
2018-08-27T02:21:07.505Z,99.90
2018-08-27T02:23:36.036Z,99.90
2018-08-27T02:26:04.549Z,99.90
2018-08-27T02:28:33.006Z,99.90
2018-08-27T02:31:01.449Z,99.90
2018-08-27T02:33:30.509Z,99.90
2018-08-27T02:35:58.978Z,99.90
2018-08-27T02:38:27.457Z,99.90
2018-08-27T02:40:55.996Z,99.90
2018-08-27T02:43:24.512Z,99.90
2018-08-27T02:45:52.993Z,99.90
2018-08-27T02:48:21.463Z,99.90
2018-08-27T02:50:49.919Z,99.90
2018-08-27T02:53:18.406Z,99.90
2018-08-27T02:55:46.853Z,99.90
2018-08-27T02:58:15.336Z,99.90
2018-08-27T03:00:43.823Z,99.90
2018-08-27T03:03:12.253Z,99.90
2018-08-27T03:05:40.699Z,99.90
2018-08-27T03:08:09.167Z,99.90
2018-08-27T03:10:37.782Z,99.90
2018-08-27T03:13:06.467Z,99.90
2018-08-27T03:15:34.927Z,99.90
2018-08-27T03:18:03.481Z,99.90
2018-08-27T03:20:32.000Z,99.90
2018-08-27T03:23:00.424Z,99.90
2018-08-27T03:25:28.998Z,99.90
2018-08-27T03:27:57.460Z,99.90
2018-08-27T03:30:25.898Z,99.90
2018-08-27T03:32:54.356Z,99.90
2018-08-27T03:35:23.010Z,99.90
2018-08-27T03:37:51.523Z,99.90
2018-08-27T03:40:19.949Z,99.90
2018-08-27T03:42:48.466Z,99.90
2018-08-27T03:45:17.058Z,99.90
2018-08-27T03:47:45.491Z,99.90
2018-08-27T03:50:13.959Z,99.90
2018-08-27T03:52:42.425Z,99.90
2018-08-27T03:55:11.029Z,99.90
2018-08-27T03:57:39.475Z,99.90
2018-08-27T04:00:08.039Z,99.90
2018-08-27T04:02:36.465Z,99.90
2018-08-27T04:05:05.031Z,99.90
2018-08-27T04:07:33.459Z,99.90
2018-08-27T04:10:01.919Z,99.90
2018-08-27T04:12:30.367Z,99.90
2018-08-27T04:14:59.391Z,99.90
2018-08-27T04:17:30.944Z,99.90
2018-08-27T04:20:00.445Z,99.90
2018-08-27T04:22:29.249Z,99.90
2018-08-27T04:24:57.851Z,99.90
2018-08-27T04:27:26.280Z,99.90
2018-08-27T04:29:54.714Z,99.90
2018-08-27T04:32:23.911Z,99.90
2018-08-27T04:34:52.667Z,99.90
2018-08-27T04:37:21.918Z,99.90
2018-08-27T04:39:50.613Z,99.90
2018-08-27T04:42:19.066Z,99.90
2018-08-27T04:44:47.546Z,99.90
2018-08-27T04:47:15.983Z,99.90
2018-08-27T04:49:44.492Z,99.90
2018-08-27T04:52:12.934Z,99.90
2018-08-27T04:54:41.568Z,99.90
2018-08-27T04:57:10.094Z,99.90
2018-08-27T04:59:43.375Z,99.90
2018-08-27T05:02:11.806Z,99.90
2018-08-27T05:04:40.294Z,99.90
2018-08-27T05:07:08.716Z,99.90
2018-08-27T05:09:37.823Z,99.90
2018-08-27T05:12:06.327Z,99.90
2018-08-27T05:14:34.770Z,99.90
2018-08-27T05:17:03.334Z,99.90
2018-08-27T05:19:31.881Z,99.90
2018-08-27T05:22:00.404Z,99.90
2018-08-27T05:24:28.877Z,99.90
2018-08-27T05:26:57.355Z,99.50
2018-08-27T05:29:25.863Z,99.00
2018-08-27T05:31:54.337Z,99.50
2018-08-27T05:34:22.857Z,99.50
2018-08-27T05:36:51.438Z,99.30
2018-08-27T05:39:19.881Z,99.00
2018-08-27T05:41:48.389Z,98.40
2018-08-27T05:44:16.880Z,98.40
2018-08-27T05:46:45.361Z,97.90
2018-08-27T05:49:13.911Z,97.60
2018-08-27T05:51:42.366Z,97.90
2018-08-27T05:54:10.830Z,97.60
2018-08-27T05:56:39.284Z,97.70
2018-08-27T05:59:07.968Z,97.90
2018-08-27T06:01:36.489Z,96.80
2018-08-27T06:04:04.982Z,97.00
2018-08-27T06:06:33.454Z,96.70
2018-08-27T06:09:01.932Z,97.10
2018-08-27T06:11:30.472Z,96.70
2018-08-27T06:13:58.965Z,97.00
2018-08-27T06:16:27.462Z,97.00
2018-08-27T06:18:56.010Z,96.30
2018-08-27T06:21:24.469Z,95.80
2018-08-27T06:23:52.924Z,96.10
2018-08-27T06:26:21.396Z,96.40
2018-08-27T06:28:49.854Z,95.90
2018-08-27T06:31:18.508Z,96.40
2018-08-27T06:33:47.079Z,94.90
2018-08-27T06:36:15.537Z,95.10
2018-08-27T06:38:44.005Z,95.20
2018-08-27T06:41:12.531Z,95.90
2018-08-27T06:43:41.100Z,95.30
2018-08-27T06:46:09.953Z,95.70
2018-08-27T06:48:38.695Z,95.50
2018-08-27T06:51:07.175Z,95.70
2018-08-27T06:53:35.795Z,96.00
2018-08-27T06:56:04.416Z,95.40
2018-08-27T06:58:32.864Z,94.90
2018-08-27T07:01:01.324Z,96.00
2018-08-27T07:03:29.805Z,93.50
2018-08-27T07:05:58.259Z,92.50
2018-08-27T07:08:26.722Z,92.40
2018-08-27T07:10:55.187Z,94.10
2018-08-27T07:13:23.667Z,94.50
2018-08-27T07:15:52.253Z,94.00
2018-08-27T07:18:20.823Z,94.00
2018-08-27T07:20:49.284Z,94.60
2018-08-27T07:23:17.760Z,92.60
2018-08-27T07:25:46.241Z,94.20
2018-08-27T07:28:14.790Z,92.90
2018-08-27T07:30:43.378Z,92.90
2018-08-27T07:33:11.897Z,90.60
2018-08-27T07:35:40.669Z,91.60
2018-08-27T07:38:09.074Z,91.60
2018-08-27T07:40:37.566Z,91.30
2018-08-27T07:43:06.094Z,92.60
2018-08-27T07:45:35.099Z,91.40
2018-08-27T07:48:03.621Z,92.10
2018-08-27T07:50:32.134Z,90.20
2018-08-27T07:53:00.693Z,91.40
2018-08-27T07:55:29.174Z,90.10
2018-08-27T07:57:57.657Z,89.80
2018-08-27T08:00:26.296Z,90.00
2018-08-27T08:02:55.642Z,89.40
2018-08-27T08:05:24.145Z,88.20
2018-08-27T08:07:52.647Z,88.10
2018-08-27T08:10:21.593Z,85.20
2018-08-27T08:12:51.821Z,84.90
2018-08-27T08:15:20.811Z,87.30
2018-08-27T08:17:49.809Z,86.30
2018-08-27T08:20:18.584Z,87.30
2018-08-27T08:22:47.218Z,84.70
2018-08-27T08:25:15.816Z,85.20
2018-08-27T08:27:44.344Z,85.80
2018-08-27T08:30:12.785Z,88.20
2018-08-27T08:32:41.269Z,86.60
2018-08-27T08:35:09.780Z,89.00
2018-08-27T08:37:38.242Z,90.30
2018-08-27T08:40:06.814Z,90.80
2018-08-27T08:42:35.242Z,91.10
2018-08-27T08:45:04.289Z,90.60
2018-08-27T08:47:32.791Z,90.00
2018-08-27T08:50:01.264Z,90.10
2018-08-27T08:52:29.724Z,89.00
2018-08-27T08:54:58.161Z,88.20
2018-08-27T08:57:26.771Z,86.50
2018-08-27T08:59:55.301Z,88.10
2018-08-27T09:02:23.794Z,88.70
2018-08-27T09:04:52.230Z,87.70
2018-08-27T09:07:20.691Z,87.70
2018-08-27T09:09:49.158Z,88.00
2018-08-27T09:12:17.729Z,86.00
2018-08-27T09:14:46.200Z,86.50
2018-08-27T09:17:14.796Z,85.20
2018-08-27T09:19:43.239Z,82.50
2018-08-27T09:22:11.743Z,81.20
2018-08-27T09:24:40.191Z,80.40
2018-08-27T09:27:08.666Z,79.60
2018-08-27T09:29:37.237Z,75.50
2018-08-27T09:32:05.784Z,76.10
2018-08-27T09:34:34.258Z,75.50
2018-08-27T09:37:02.793Z,71.90
2018-08-27T09:39:31.280Z,71.60
2018-08-27T09:41:59.778Z,72.30
2018-08-27T09:44:28.270Z,71.30
2018-08-27T09:46:56.987Z,74.00
2018-08-27T09:49:25.407Z,71.50
2018-08-27T09:51:53.892Z,71.20
2018-08-27T09:54:22.364Z,69.00
2018-08-27T09:56:50.834Z,71.60
2018-08-27T09:59:19.341Z,67.60
2018-08-27T10:01:53.297Z,67.60
2018-08-27T10:04:21.785Z,69.50
2018-08-27T10:06:50.227Z,69.50
2018-08-27T10:09:18.680Z,68.50
2018-08-27T10:11:47.165Z,67.20
2018-08-27T10:14:15.660Z,67.00
2018-08-27T10:16:44.189Z,68.00
2018-08-27T10:19:12.782Z,67.70
2018-08-27T10:21:41.475Z,66.30
2018-08-27T10:24:09.914Z,65.60
2018-08-27T10:26:38.428Z,65.00
2018-08-27T10:29:06.965Z,65.40
2018-08-27T10:31:36.043Z,65.40
2018-08-27T10:34:04.536Z,63.30
2018-08-27T10:36:33.012Z,64.90
2018-08-27T10:39:02.450Z,64.70
2018-08-27T10:41:31.825Z,63.80
2018-08-27T10:44:00.413Z,66.50
2018-08-27T10:46:28.956Z,65.80
2018-08-27T10:48:57.420Z,65.90
2018-08-27T10:51:25.930Z,68.40
2018-08-27T10:53:54.406Z,67.10
2018-08-27T10:56:22.829Z,65.60
2018-08-27T10:58:51.323Z,67.00
2018-08-27T11:01:20.942Z,65.40
2018-08-27T11:03:49.389Z,64.00
2018-08-27T11:06:17.924Z,59.60
2018-08-27T11:08:46.526Z,63.50
2018-08-27T11:11:15.007Z,61.70
2018-08-27T11:13:43.523Z,59.80
2018-08-27T11:16:12.031Z,60.00
2018-08-27T11:18:40.512Z,61.70
2018-08-27T11:21:08.961Z,59.60
2018-08-27T11:23:37.531Z,57.80
2018-08-27T11:26:06.177Z,59.50
2018-08-27T11:28:34.663Z,59.30
2018-08-27T11:31:03.238Z,57.50
2018-08-27T11:33:31.800Z,57.40
2018-08-27T11:36:00.868Z,57.30
2018-08-27T11:38:29.325Z,58.90
2018-08-27T11:40:57.777Z,60.10
2018-08-27T11:43:26.326Z,54.60
2018-08-27T11:45:54.767Z,55.50
2018-08-27T11:48:23.268Z,57.80
2018-08-27T11:50:51.915Z,58.00
2018-08-27T11:53:20.323Z,55.80
2018-08-27T11:55:48.779Z,54.00
2018-08-27T11:58:17.272Z,55.00
2018-08-27T12:00:51.130Z,55.10
2018-08-27T12:03:19.613Z,54.00
2018-08-27T12:05:48.089Z,54.40
2018-08-27T12:08:16.551Z,52.80
2018-08-27T12:10:45.209Z,52.70
2018-08-27T12:13:13.694Z,51.70
2018-08-27T12:15:42.251Z,54.10
2018-08-27T12:18:10.753Z,52.60
2018-08-27T12:20:39.216Z,51.90
2018-08-27T12:23:08.326Z,52.60
2018-08-27T12:25:36.797Z,51.20
2018-08-27T12:28:05.414Z,52.20
2018-08-27T12:30:33.913Z,50.90
2018-08-27T12:33:02.401Z,50.20
2018-08-27T12:35:30.882Z,53.00
2018-08-27T12:37:59.388Z,48.90
2018-08-27T12:40:27.899Z,50.30
2018-08-27T12:42:56.377Z,50.70
2018-08-27T12:45:24.876Z,52.30
2018-08-27T12:47:53.443Z,48.00
2018-08-27T12:50:22.057Z,52.70
2018-08-27T12:52:50.525Z,54.40
2018-08-27T12:55:18.961Z,49.60
2018-08-27T12:57:47.445Z,52.50
2018-08-27T13:00:16.761Z,53.50
2018-08-27T13:02:46.558Z,52.50
2018-08-27T13:05:14.954Z,50.40
2018-08-27T13:07:44.388Z,50.70
2018-08-27T13:10:13.005Z,49.90
2018-08-27T13:12:41.564Z,50.10
2018-08-27T13:15:10.075Z,50.50
2018-08-27T13:17:38.682Z,51.00
2018-08-27T13:20:07.088Z,52.10
2018-08-27T13:22:35.663Z,48.00
2018-08-27T13:25:04.706Z,48.00
2018-08-27T13:27:33.659Z,48.50
2018-08-27T13:30:02.340Z,43.70
2018-08-27T13:32:30.795Z,47.00
2018-08-27T13:34:59.304Z,49.90
2018-08-27T13:37:27.668Z,47.30
2018-08-27T13:39:56.277Z,47.60
2018-08-27T13:42:24.752Z,48.30
2018-08-27T13:44:53.230Z,50.10
2018-08-27T13:47:21.715Z,47.00
2018-08-27T13:49:50.083Z,48.90
2018-08-27T13:52:18.578Z,47.40
2018-08-27T13:54:47.053Z,49.90
2018-08-27T13:57:15.569Z,52.10
2018-08-27T13:59:44.006Z,49.50
2018-08-27T14:02:12.497Z,45.70
2018-08-27T14:04:41.049Z,47.60
2018-08-27T14:07:09.526Z,49.20
2018-08-27T14:09:38.039Z,48.70
2018-08-27T14:12:06.800Z,50.60
2018-08-27T14:14:35.420Z,48.50
2018-08-27T14:17:04.133Z,47.70
2018-08-27T14:19:32.651Z,47.60
2018-08-27T14:22:01.123Z,47.20
2018-08-27T14:24:29.539Z,49.60
2018-08-27T14:26:58.037Z,49.60
2018-08-27T14:29:26.607Z,48.80
2018-08-27T14:31:55.088Z,48.90
2018-08-27T14:34:23.561Z,49.40
2018-08-27T14:36:51.988Z,50.30
2018-08-27T14:39:20.494Z,48.00
2018-08-27T14:41:49.631Z,49.10
2018-08-27T14:44:18.039Z,49.00
2018-08-27T14:46:46.627Z,48.90
2018-08-27T14:49:15.142Z,51.10
2018-08-27T14:51:43.554Z,51.40
2018-08-27T14:54:12.053Z,50.70
2018-08-27T14:56:40.466Z,49.60
2018-08-27T14:59:08.883Z,51.50
2018-08-27T15:01:37.371Z,49.50
2018-08-27T15:04:06.130Z,50.80
2018-08-27T15:06:34.629Z,50.80
2018-08-27T15:09:03.285Z,49.50
2018-08-27T15:11:31.804Z,49.30
2018-08-27T15:14:00.405Z,51.80
2018-08-27T15:16:28.904Z,53.60
2018-08-27T15:18:57.377Z,51.30
2018-08-27T15:21:25.886Z,52.70
2018-08-27T15:23:54.390Z,53.20
2018-08-27T15:26:22.931Z,51.40
2018-08-27T15:28:51.386Z,50.00
2018-08-27T15:31:19.866Z,48.90
2018-08-27T15:33:48.421Z,49.40
2018-08-27T15:36:16.927Z,54.00
2018-08-27T15:38:45.515Z,50.30
2018-08-27T15:41:13.967Z,50.50
2018-08-27T15:43:42.524Z,50.20
2018-08-27T15:46:44.324Z,47.60
2018-08-27T15:49:13.257Z,48.10
2018-08-27T15:51:42.341Z,48.70
2018-08-27T15:54:11.678Z,51.80
2018-08-27T15:56:41.046Z,53.00
2018-08-27T15:59:09.557Z,55.10
2018-08-27T16:01:38.063Z,55.00
2018-08-27T16:04:06.611Z,55.80
2018-08-27T16:06:35.110Z,51.50
2018-08-27T16:09:05.039Z,50.50
2018-08-27T16:11:33.500Z,50.30
2018-08-27T16:14:02.001Z,51.80
2018-08-27T16:16:30.505Z,52.10
2018-08-27T16:18:58.978Z,56.70
2018-08-27T16:21:27.495Z,57.30
2018-08-27T16:23:56.083Z,54.10
2018-08-27T16:26:24.550Z,54.40
2018-08-27T16:28:53.035Z,57.10
2018-08-27T16:31:21.625Z,57.50
2018-08-27T16:33:50.188Z,54.30
2018-08-27T16:36:18.675Z,57.90
2018-08-27T16:38:47.181Z,59.60
2018-08-27T16:41:15.722Z,59.50
2018-08-27T16:43:44.215Z,57.40
2018-08-27T16:46:12.704Z,60.40
2018-08-27T16:48:41.168Z,58.30
2018-08-27T16:51:09.641Z,58.40
2018-08-27T16:53:38.113Z,59.40
2018-08-27T16:56:06.599Z,59.80
2018-08-27T16:58:35.162Z,60.20
2018-08-27T17:01:03.607Z,61.30
2018-08-27T17:03:32.076Z,61.30
2018-08-27T17:06:00.646Z,62.20
2018-08-27T17:08:29.481Z,62.70
2018-08-27T17:10:58.059Z,66.00
2018-08-27T17:13:26.542Z,65.50
2018-08-27T17:15:55.061Z,65.90
2018-08-27T17:18:23.640Z,67.80
2018-08-27T17:20:52.189Z,69.30
2018-08-27T17:23:20.752Z,68.80
2018-08-27T17:25:49.412Z,67.10
2018-08-27T17:28:17.881Z,67.90
2018-08-27T17:30:46.479Z,68.60
2018-08-27T17:33:14.976Z,71.10
2018-08-27T17:35:44.253Z,72.40
2018-08-27T17:38:12.786Z,70.90
2018-08-27T17:40:41.306Z,71.40
2018-08-27T17:43:09.789Z,70.10
2018-08-27T17:45:38.357Z,68.50
2018-08-27T17:48:06.854Z,69.00
2018-08-27T17:50:35.389Z,68.50
2018-08-27T17:53:03.989Z,69.20
2018-08-27T17:55:32.506Z,71.80
2018-08-27T17:58:01.040Z,71.30
2018-08-27T18:00:29.840Z,70.00
2018-08-27T18:02:59.438Z,71.20
2018-08-27T18:05:27.940Z,70.40
2018-08-27T18:07:56.453Z,70.50
2018-08-27T18:10:25.008Z,71.40
2018-08-27T18:12:53.608Z,72.70
2018-08-27T18:15:22.800Z,71.40
2018-08-27T18:17:51.582Z,70.00
2018-08-27T18:20:20.308Z,67.80
2018-08-27T18:22:49.399Z,68.00
2018-08-27T18:25:18.825Z,68.70
2018-08-27T18:27:47.426Z,66.40
2018-08-27T18:30:16.104Z,67.50
2018-08-27T18:32:44.686Z,69.30
2018-08-27T18:35:13.297Z,68.80
2018-08-27T18:37:41.876Z,69.70
2018-08-27T18:40:10.570Z,67.30
2018-08-27T18:42:39.556Z,67.20
2018-08-27T18:45:08.342Z,68.80
2018-08-27T18:47:37.168Z,65.00
2018-08-27T18:50:06.035Z,66.40
2018-08-27T18:52:34.758Z,68.60
2018-08-27T18:55:03.541Z,67.60
2018-08-27T18:57:33.205Z,67.80
2018-08-27T19:00:02.050Z,67.50
2018-08-27T19:02:30.635Z,68.20
2018-08-27T19:04:59.324Z,69.00
2018-08-27T19:07:28.424Z,69.10
2018-08-27T19:09:57.308Z,69.60
2018-08-27T19:12:25.966Z,69.00
2018-08-27T19:14:54.722Z,68.90
2018-08-27T19:17:23.263Z,69.80
2018-08-27T19:19:52.211Z,70.80
2018-08-27T19:22:20.959Z,71.00
2018-08-27T19:24:49.774Z,71.80
2018-08-27T19:27:18.436Z,72.40
2018-08-27T19:29:47.033Z,74.20
2018-08-27T19:32:15.837Z,74.00
2018-08-27T19:34:44.632Z,75.00
2018-08-27T19:37:13.276Z,76.30
2018-08-27T19:39:41.872Z,77.40
2018-08-27T19:42:10.547Z,77.30
2018-08-27T19:44:39.161Z,76.30
2018-08-27T19:47:07.830Z,76.80
2018-08-27T19:49:37.195Z,77.60
2018-08-27T19:52:05.773Z,78.20
2018-08-27T19:54:34.386Z,77.70
2018-08-27T19:57:02.900Z,78.40
2018-08-27T19:59:31.403Z,79.00
2018-08-27T20:01:59.944Z,80.00
2018-08-27T20:04:28.427Z,81.00
2018-08-27T20:06:57.525Z,80.10
2018-08-27T20:09:26.061Z,80.80
2018-08-27T20:11:54.732Z,79.80
2018-08-27T20:14:23.417Z,80.20
2018-08-27T20:16:51.978Z,79.80
2018-08-27T20:19:20.811Z,83.20
2018-08-27T20:21:49.327Z,80.30
2018-08-27T20:24:18.171Z,81.10
2018-08-27T20:26:46.902Z,81.20
2018-08-27T20:29:15.595Z,81.10
2018-08-27T20:31:44.158Z,80.30
2018-08-27T20:34:13.473Z,80.50
2018-08-27T20:36:42.823Z,81.10
2018-08-27T20:39:12.620Z,80.90
2018-08-27T20:41:41.238Z,81.30
2018-08-27T20:44:10.082Z,81.20
2018-08-27T20:46:38.874Z,81.50
2018-08-27T20:49:07.747Z,81.60
2018-08-27T20:51:36.496Z,82.10
2018-08-27T20:54:06.077Z,83.80
2018-08-27T20:56:34.722Z,84.60
2018-08-27T20:59:07.093Z,85.00
2018-08-27T21:01:36.214Z,85.70
2018-08-27T21:04:04.873Z,85.40
2018-08-27T21:06:33.413Z,85.90
2018-08-27T21:09:02.102Z,86.00
2018-08-27T21:11:31.154Z,86.30
2018-08-27T21:14:10.366Z,86.70
2018-08-27T21:16:38.971Z,87.00
2018-08-27T21:19:07.547Z,87.40
2018-08-27T21:21:36.098Z,86.90
2018-08-27T21:24:04.585Z,87.30
2018-08-27T21:26:33.074Z,87.80
2018-08-27T21:29:02.057Z,88.10
2018-08-27T21:31:30.531Z,89.20
2018-08-27T21:33:59.242Z,90.00
2018-08-27T21:36:27.761Z,90.40
2018-08-27T21:38:56.490Z,90.70
2018-08-27T21:41:25.526Z,90.90
2018-08-27T21:43:54.265Z,91.10
2018-08-27T21:46:22.774Z,91.30
2018-08-27T21:48:51.224Z,91.40
2018-08-27T21:51:19.726Z,91.60
2018-08-27T21:53:48.209Z,92.00
2018-08-27T21:56:16.696Z,92.20
2018-08-27T21:58:45.167Z,92.30
2018-08-27T22:01:13.668Z,92.50
2018-08-27T22:03:47.588Z,92.80
2018-08-27T22:06:16.172Z,93.00
2018-08-27T22:08:44.737Z,93.20
2018-08-27T22:11:13.263Z,93.40
2018-08-27T22:13:41.712Z,94.10
2018-08-27T22:16:10.190Z,94.00
2018-08-27T22:18:38.630Z,94.20
2018-08-27T22:21:07.184Z,94.20
2018-08-27T22:23:35.676Z,94.50
2018-08-27T22:26:04.187Z,94.80
2018-08-27T22:28:32.678Z,94.70
2018-08-27T22:31:01.162Z,95.10
2018-08-27T22:33:29.636Z,95.10
2018-08-27T22:35:58.096Z,95.50
2018-08-27T22:38:26.992Z,95.60
2018-08-27T22:40:55.502Z,95.80
2018-08-27T22:43:23.998Z,96.00
2018-08-27T22:45:52.458Z,95.80
2018-08-27T22:48:20.946Z,96.00
2018-08-27T22:50:49.440Z,96.20
2018-08-27T22:53:17.940Z,96.60
2018-08-27T22:55:46.393Z,97.20
2018-08-27T22:58:14.937Z,97.40
2018-08-27T23:00:43.387Z,97.90
2018-08-27T23:03:17.181Z,98.40
2018-08-27T23:05:45.699Z,98.50
2018-08-27T23:08:14.171Z,98.40
2018-08-27T23:10:42.691Z,98.00
2018-08-27T23:13:11.143Z,98.20
2018-08-27T23:15:39.682Z,97.90
2018-08-27T23:18:08.135Z,97.90
2018-08-27T23:20:36.705Z,98.20
2018-08-27T23:23:05.181Z,98.00
2018-08-27T23:25:33.669Z,97.70
2018-08-27T23:28:02.136Z,97.80
2018-08-27T23:30:30.592Z,98.20
2018-08-27T23:32:59.058Z,98.30
2018-08-27T23:35:27.627Z,98.30
2018-08-27T23:37:56.102Z,98.50
2018-08-27T23:40:24.651Z,98.80
2018-08-27T23:42:53.092Z,98.60
2018-08-27T23:45:21.643Z,98.60
2018-08-27T23:47:50.154Z,98.80
2018-08-27T23:50:18.594Z,98.70
2018-08-27T23:52:47.217Z,98.80
2018-08-27T23:55:15.668Z,98.80
2018-08-27T23:57:44.254Z,98.80
